Time;durP1;ratioP1;P1;durP2;ratioP2;P2;SDS_P1;SDS_P2;PMS_P1;PMS_P2;Temp;Humidity;BMP_temperature;BMP_pressure;BME280_temperature;BME280_humidity;BME280_pressure;Samples;Min_cycle;Max_cycle;Signal;HPM_P1;HPM_P2
2022/08/25 00:00:21;;;;;;;5.13;4.70;;;15.60;99.90;;;;;;4862366;29;20491;-86
2022/08/25 00:02:49;;;;;;;7.85;6.07;;;15.70;99.90;;;;;;4874615;29;20091;-87
2022/08/25 00:05:25;;;;;;;7.88;7.07;;;15.80;99.90;;;;;;4841823;29;20052;-87
2022/08/25 00:07:56;;;;;;;10.98;9.23;;;15.80;99.90;;;;;;4857941;29;20073;-86
2022/08/25 00:10:24;;;;;;;38.13;9.40;;;15.90;99.90;;;;;;4861333;29;20507;-87
2022/08/25 00:12:56;;;;;;;11.75;7.90;;;15.90;99.90;;;;;;4832367;29;20061;-87
2022/08/25 00:15:24;;;;;;;8.07;5.78;;;15.90;99.90;;;;;;4842275;29;20046;-87
2022/08/25 00:17:52;;;;;;;8.80;7.30;;;15.90;99.90;;;;;;4825521;29;20081;-87
2022/08/25 00:20:21;;;;;;;7.43;6.03;;;15.80;99.90;;;;;;4864398;29;20049;-87
2022/08/25 00:22:48;;;;;;;8.75;6.32;;;15.80;99.90;;;;;;4864661;29;20049;-86
2022/08/25 00:25:17;;;;;;;11.65;7.97;;;15.80;99.90;;;;;;4872683;29;20056;-86
2022/08/25 00:27:46;;;;;;;8.57;7.68;;;15.70;99.90;;;;;;4887018;29;20048;-87
2022/08/25 00:30:15;;;;;;;8.70;6.80;;;15.70;99.90;;;;;;4874393;29;20053;-87
2022/08/25 00:32:44;;;;;;;8.98;6.57;;;15.70;99.90;;;;;;4873472;29;20052;-87
2022/08/25 00:35:22;;;;;;;8.30;7.50;;;15.60;99.90;;;;;;4859875;29;20053;-86
2022/08/25 00:37:50;;;;;;;11.63;8.30;;;15.50;99.90;;;;;;4858248;29;20061;-87
2022/08/25 00:40:19;;;;;;;8.98;7.18;;;15.50;99.90;;;;;;4847705;29;20494;-87
2022/08/25 00:42:54;;;;;;;12.13;7.90;;;15.40;99.90;;;;;;4874573;29;20526;-87
2022/08/25 00:45:22;;;;;;;11.70;7.70;;;15.40;99.90;;;;;;4860343;29;20049;-87
2022/08/25 00:47:50;;;;;;;15.02;7.82;;;15.40;99.90;;;;;;4866115;29;20053;-86
2022/08/25 00:50:20;;;;;;;11.93;9.32;;;15.40;99.90;;;;;;4849623;29;20099;-86
2022/08/25 00:52:51;;;;;;;12.90;9.52;;;15.40;99.90;;;;;;4864107;29;20059;-86
2022/08/25 00:55:28;;;;;;;14.70;10.43;;;15.50;99.90;;;;;;4852446;29;20041;-86
2022/08/25 00:58:17;;;;;;;11.65;8.85;;;15.50;99.90;;;;;;4842809;29;20056;-87
2022/08/25 01:00:48;;;;;;;10.75;7.75;;;15.50;99.90;;;;;;4874648;29;20055;-87
2022/08/25 01:03:18;;;;;;;9.23;5.65;;;15.50;99.90;;;;;;4844796;29;20036;-87
2022/08/25 01:05:47;;;;;;;13.90;5.80;;;15.40;99.90;;;;;;4858633;29;20440;-87
2022/08/25 01:08:20;;;;;;;7.20;6.10;;;15.20;99.90;;;;;;4858574;29;20060;-86
2022/08/25 01:10:49;;;;;;;7.70;5.85;;;15.00;99.90;;;;;;4870698;29;20049;-86
2022/08/25 01:13:40;;;;;;;11.23;8.20;;;14.90;99.90;;;;;;4858730;29;20063;-86
2022/08/25 01:16:08;;;;;;;9.37;7.53;;;14.90;99.90;;;;;;4886877;29;20053;-87
2022/08/25 01:18:50;;;;;;;7.82;6.30;;;14.90;99.90;;;;;;4879554;29;20052;-86
2022/08/25 01:21:21;;;;;;;9.93;7.10;;;14.90;99.90;;;;;;4860738;29;20057;-86
2022/08/25 01:23:49;;;;;;;11.87;8.67;;;14.90;99.90;;;;;;4857509;29;20057;-87
2022/08/25 01:26:23;;;;;;;8.77;6.22;;;14.80;99.90;;;;;;4876464;29;20052;-87
2022/08/25 01:31:45;;;;;;;10.07;7.10;;;14.70;99.90;;;;;;4823841;29;20060;-86
2022/08/25 01:34:18;;;;;;;11.43;7.80;;;14.60;99.90;;;;;;4875268;29;20063;-85
2022/08/25 01:36:46;;;;;;;8.50;7.30;;;14.60;99.90;;;;;;4883655;29;20495;-86
2022/08/25 01:39:14;;;;;;;9.95;6.80;;;14.70;99.90;;;;;;4860737;29;20061;-86
2022/08/25 01:41:53;;;;;;;9.95;7.68;;;14.70;99.90;;;;;;4864683;29;20048;-86
2022/08/25 01:44:21;;;;;;;8.57;7.68;;;14.80;99.90;;;;;;4875304;29;20045;-86
2022/08/25 01:46:50;;;;;;;13.52;7.45;;;14.80;99.90;;;;;;4874782;29;20053;-86
2022/08/25 01:49:17;;;;;;;9.77;7.57;;;14.80;99.90;;;;;;4871890;29;20061;-86
2022/08/25 01:51:55;;;;;;;11.40;8.23;;;14.80;99.90;;;;;;4878353;29;20055;-86
2022/08/25 01:54:22;;;;;;;7.75;6.60;;;14.90;99.90;;;;;;4858764;29;20057;-87
2022/08/25 01:56:50;;;;;;;5.35;4.85;;;14.90;99.90;;;;;;4868719;29;20061;-86
2022/08/25 01:59:20;;;;;;;6.18;4.88;;;14.70;99.90;;;;;;4873275;29;20056;-86
2022/08/25 02:01:51;;;;;;;8.73;7.70;;;14.60;99.90;;;;;;4854798;29;20049;-86
2022/08/25 02:04:30;;;;;;;8.43;6.85;;;14.60;99.90;;;;;;4853093;29;20052;-86
2022/08/25 02:07:00;;;;;;;7.57;5.63;;;14.60;99.90;;;;;;4838607;29;20120;-85
2022/08/25 02:09:28;;;;;;;10.40;7.10;;;14.70;99.90;;;;;;4844327;29;20049;-86
2022/08/25 02:11:56;;;;;;;9.98;6.90;;;14.80;99.90;;;;;;4859628;29;20053;-84
2022/08/25 02:14:56;;;;;;;11.00;6.78;;;15.00;99.90;;;;;;4877371;29;20486;-83
2022/08/25 02:17:23;;;;;;;10.75;6.05;;;15.10;99.90;;;;;;4840347;29;20053;-83
2022/08/25 02:19:51;;;;;;;25.20;7.32;;;15.20;99.90;;;;;;4855748;29;20060;-83
2022/08/25 02:22:24;;;;;;;9.05;6.95;;;15.20;99.90;;;;;;4855147;29;20498;-83
2022/08/25 02:24:52;;;;;;;12.65;6.45;;;15.30;99.90;;;;;;4864417;29;20068;-83
2022/08/25 02:27:20;;;;;;;11.85;6.82;;;15.30;99.90;;;;;;4876978;29;20053;-84
2022/08/25 02:29:47;;;;;;;9.70;6.72;;;15.30;99.90;;;;;;4869886;29;20049;-83
2022/08/25 02:32:15;;;;;;;8.10;6.10;;;15.30;99.90;;;;;;4849610;29;20053;-83
2022/08/25 02:34:43;;;;;;;8.38;7.13;;;15.20;99.90;;;;;;4874568;29;20052;-83
2022/08/25 02:37:11;;;;;;;11.18;7.15;;;15.30;99.90;;;;;;4877208;29;20064;-84
2022/08/25 02:39:39;;;;;;;8.50;6.85;;;15.30;99.90;;;;;;4865676;29;20049;-84
2022/08/25 02:42:07;;;;;;;10.23;7.13;;;15.30;99.90;;;;;;4861140;29;20068;-85
2022/08/25 02:44:34;;;;;;;12.38;8.63;;;15.30;99.90;;;;;;4848785;29;20057;-84
2022/08/25 02:47:03;;;;;;;9.45;6.75;;;15.20;99.90;;;;;;4869769;29;20056;-84
2022/08/25 02:49:31;;;;;;;9.07;6.50;;;15.20;99.90;;;;;;4857988;29;20546;-85
2022/08/25 02:51:59;;;;;;;12.15;8.52;;;15.10;99.90;;;;;;4875985;29;20057;-84
2022/08/25 02:54:28;;;;;;;15.90;7.72;;;15.20;99.90;;;;;;4859768;29;20049;-85
2022/08/25 02:56:55;;;;;;;15.05;8.15;;;15.20;99.90;;;;;;4875663;29;20060;-85
2022/08/25 02:59:23;;;;;;;9.93;7.70;;;15.30;99.90;;;;;;4875318;29;20053;-84
2022/08/25 03:01:51;;;;;;;9.38;7.85;;;15.20;99.90;;;;;;4874893;29;20493;-84
2022/08/25 03:04:19;;;;;;;8.35;5.43;;;15.20;99.90;;;;;;4876168;29;20068;-85
2022/08/25 03:06:46;;;;;;;6.60;5.05;;;15.20;99.90;;;;;;4876329;29;20067;-84
2022/08/25 03:09:15;;;;;;;7.07;5.57;;;15.20;99.90;;;;;;4875631;29;20060;-85
2022/08/25 03:11:43;;;;;;;9.10;6.47;;;15.20;99.90;;;;;;4877883;29;20049;-85
2022/08/25 03:14:11;;;;;;;12.55;7.13;;;15.20;99.90;;;;;;4877016;29;20056;-84
2022/08/25 03:16:39;;;;;;;11.02;7.07;;;15.20;99.90;;;;;;4861223;29;20053;-85
2022/08/25 03:19:07;;;;;;;7.68;5.15;;;15.10;99.90;;;;;;4865696;29;20500;-84
2022/08/25 03:21:37;;;;;;;10.65;6.05;;;15.10;99.90;;;;;;4869943;29;20054;-84
2022/08/25 03:24:06;;;;;;;7.35;5.80;;;15.10;99.90;;;;;;4841000;29;20069;-84
2022/08/25 03:29:24;;;;;;;9.50;7.22;;;15.10;99.90;;;;;;4854299;29;20072;-84
2022/08/25 03:32:02;;;;;;;10.48;7.75;;;15.00;99.90;;;;;;4856175;29;20058;-85
2022/08/25 03:34:30;;;;;;;6.95;4.65;;;15.00;99.90;;;;;;4853387;29;20776;-85
2022/08/25 03:36:58;;;;;;;9.32;5.90;;;14.80;99.90;;;;;;4872536;29;20057;-84
2022/08/25 03:39:26;;;;;;;9.18;6.63;;;14.60;99.90;;;;;;4841474;29;20068;-84
2022/08/25 03:41:54;;;;;;;9.85;5.38;;;14.50;99.90;;;;;;4857380;29;20058;-84
2022/08/25 03:44:22;;;;;;;11.40;6.00;;;14.60;99.90;;;;;;4859062;29;20072;-85
2022/08/25 03:46:51;;;;;;;8.68;4.95;;;14.60;99.90;;;;;;4826108;29;20495;-84
2022/08/25 03:49:22;;;;;;;7.30;4.60;;;14.60;99.90;;;;;;4843071;29;20412;-84
2022/08/25 03:51:51;;;;;;;6.80;5.30;;;14.50;99.90;;;;;;4857049;29;20053;-85
2022/08/25 03:54:22;;;;;;;5.20;4.60;;;14.40;99.90;;;;;;4874886;29;20057;-84
2022/08/25 03:56:51;;;;;;;12.18;6.85;;;14.30;99.90;;;;;;4875675;29;20483;-84
2022/08/25 03:59:19;;;;;;;10.38;7.00;;;14.20;99.90;;;;;;4874812;29;20537;-84
2022/08/25 04:01:47;;;;;;;7.45;6.57;;;14.30;99.90;;;;;;4872998;29;20068;-84
2022/08/25 04:04:21;;;;;;;5.35;4.57;;;14.30;99.90;;;;;;4858781;29;20053;-85
2022/08/25 04:06:49;;;;;;;6.95;6.05;;;14.20;99.90;;;;;;4844610;29;20064;-84
2022/08/25 04:09:17;;;;;;;6.22;5.43;;;14.20;99.90;;;;;;4889968;29;20506;-84
2022/08/25 04:11:45;;;;;;;10.43;5.53;;;14.20;99.90;;;;;;4875279;29;20053;-84
2022/08/25 04:14:24;;;;;;;11.15;8.05;;;14.20;99.90;;;;;;4866483;29;20654;-84
2022/08/25 04:16:53;;;;;;;12.27;8.50;;;14.20;99.90;;;;;;4876502;29;20059;-84
2022/08/25 04:19:21;;;;;;;8.82;6.97;;;14.30;99.90;;;;;;4875709;29;20049;-84
2022/08/25 04:21:49;;;;;;;8.02;5.93;;;14.40;99.90;;;;;;4874300;29;20045;-84
2022/08/25 04:24:17;;;;;;;9.13;6.68;;;14.50;99.90;;;;;;4874986;29;20049;-84
2022/08/25 04:26:48;;;;;;;13.07;8.38;;;14.60;99.90;;;;;;4890179;29;20064;-84
2022/08/25 04:29:19;;;;;;;9.80;7.28;;;14.50;99.90;;;;;;4890015;29;20060;-84
2022/08/25 04:31:51;;;;;;;13.02;6.57;;;14.50;99.90;;;;;;4886057;29;20057;-84
2022/08/25 04:34:22;;;;;;;11.93;8.82;;;14.60;99.90;;;;;;4874207;29;20072;-84
2022/08/25 04:37:02;;;;;;;7.50;5.97;;;14.60;99.90;;;;;;4874471;29;20065;-84
2022/08/25 04:39:30;;;;;;;10.32;7.47;;;14.60;99.90;;;;;;4873383;29;20056;-81
2022/08/25 04:41:59;;;;;;;12.57;9.48;;;14.60;99.90;;;;;;4857995;29;20491;-83
2022/08/25 04:44:28;;;;;;;14.50;10.05;;;14.70;99.90;;;;;;4841635;29;20060;-84
2022/08/25 04:46:57;;;;;;;14.82;9.00;;;14.80;99.90;;;;;;4868441;29;20068;-84
2022/08/25 04:49:25;;;;;;;11.38;6.65;;;14.90;99.90;;;;;;4858548;29;20049;-84
2022/08/25 04:51:55;;;;;;;11.05;7.25;;;14.90;99.90;;;;;;4890948;29;20049;-84
2022/08/25 04:54:23;;;;;;;14.02;8.00;;;14.90;99.90;;;;;;4875890;29;20533;-84
2022/08/25 04:56:51;;;;;;;10.40;7.07;;;14.90;99.90;;;;;;4876123;29;20052;-84
2022/08/25 04:59:25;;;;;;;9.45;7.97;;;14.80;99.90;;;;;;4858142;29;20048;-84
2022/08/25 05:02:01;;;;;;;11.40;6.90;;;14.80;99.90;;;;;;4873280;29;20052;-84
2022/08/25 05:04:30;;;;;;;12.48;10.23;;;14.80;99.90;;;;;;4874991;29;20138;-84
2022/08/25 05:06:58;;;;;;;12.95;8.98;;;14.80;99.90;;;;;;4858504;29;20037;-84
2022/08/25 05:09:26;;;;;;;16.90;9.10;;;14.80;99.90;;;;;;4889501;29;20052;-84
2022/08/25 05:11:54;;;;;;;13.25;9.07;;;15.00;99.90;;;;;;4859548;29;20713;-84
2022/08/25 05:14:22;;;;;;;12.93;8.00;;;15.10;99.90;;;;;;4890272;29;20056;-84
2022/08/25 05:16:54;;;;;;;17.40;9.68;;;15.10;99.90;;;;;;4875027;29;20057;-83
2022/08/25 05:19:24;;;;;;;13.15;9.90;;;15.20;99.90;;;;;;4874126;29;20053;-84
2022/08/25 05:21:52;;;;;;;17.55;11.52;;;15.20;99.90;;;;;;4860709;29;20061;-84
2022/08/25 05:24:21;;;;;;;16.42;10.40;;;15.30;99.90;;;;;;4825490;29;20433;-83
2022/08/25 05:26:48;;;;;;;12.77;9.02;;;15.30;99.90;;;;;;4825783;29;20495;-84
2022/08/25 05:29:16;;;;;;;18.70;9.73;;;15.30;99.90;;;;;;4843167;29;20073;-84
2022/08/25 05:31:44;;;;;;;16.05;9.38;;;15.40;99.90;;;;;;4875142;29;20915;-84
2022/08/25 05:34:18;;;;;;;14.15;10.32;;;15.40;99.90;;;;;;4875683;29;20053;-84
2022/08/25 05:36:47;;;;;;;11.75;8.60;;;15.40;99.90;;;;;;4859717;29;20061;-85
2022/08/25 05:39:15;;;;;;;13.82;9.13;;;15.50;99.90;;;;;;4858718;29;20057;-84
2022/08/25 05:41:43;;;;;;;17.08;10.30;;;15.50;99.90;;;;;;4858809;29;20045;-84
2022/08/25 05:44:11;;;;;;;14.48;10.63;;;15.60;99.90;;;;;;4859288;29;20056;-84
2022/08/25 05:46:39;;;;;;;13.93;10.20;;;15.70;99.90;;;;;;4874038;29;20127;-85
2022/08/25 05:49:07;;;;;;;16.75;9.80;;;15.70;99.90;;;;;;4873672;29;20064;-85
2022/08/25 05:51:34;;;;;;;13.73;8.52;;;15.90;99.90;;;;;;4874613;29;20064;-84
2022/08/25 05:54:02;;;;;;;25.10;10.73;;;16.00;99.90;;;;;;4874039;29;20056;-85
2022/08/25 05:56:30;;;;;;;15.68;10.73;;;16.10;99.90;;;;;;4873638;29;20049;-85
2022/08/25 05:58:58;;;;;;;12.95;10.35;;;16.30;99.90;;;;;;4844312;29;20052;-85
2022/08/25 06:04:18;;;;;;;13.18;9.98;;;16.50;99.90;;;;;;4875618;29;20048;-85
2022/08/25 06:06:46;;;;;;;14.55;9.70;;;16.70;99.90;;;;;;4873458;29;20033;-85
2022/08/25 06:09:14;;;;;;;11.63;8.65;;;16.90;99.90;;;;;;4873668;29;20389;-85
2022/08/25 06:11:41;;;;;;;15.70;10.13;;;17.00;99.90;;;;;;4878969;29;20492;-85
2022/08/25 06:14:15;;;;;;;13.00;9.68;;;17.20;99.90;;;;;;4878805;29;20052;-85
2022/08/25 06:16:50;;;;;;;13.18;8.65;;;17.30;99.90;;;;;;4878847;29;20060;-84
2022/08/25 06:19:18;;;;;;;13.45;9.10;;;17.60;99.90;;;;;;4861351;29;20455;-84
2022/08/25 06:21:45;;;;;;;12.38;9.40;;;17.60;99.90;;;;;;4877284;29;20052;-84
2022/08/25 06:24:13;;;;;;;14.02;9.73;;;17.80;99.90;;;;;;4846546;29;20072;-84
2022/08/25 06:26:43;;;;;;;9.80;7.57;;;18.00;99.90;;;;;;4876853;29;20049;-84
2022/08/25 06:29:12;;;;;;;14.15;8.27;;;18.10;99.90;;;;;;4846172;29;20415;-84
2022/08/25 06:31:42;;;;;;;13.55;7.55;;;18.20;99.90;;;;;;4862222;29;20053;-85
2022/08/25 06:34:11;;;;;;;14.80;8.63;;;18.30;99.90;;;;;;4875962;29;20434;-85
2022/08/25 06:36:40;;;;;;;12.60;8.00;;;18.50;99.90;;;;;;4877353;29;20056;-85
2022/08/25 06:39:09;;;;;;;14.70;9.27;;;18.70;99.90;;;;;;4875528;29;20416;-87
2022/08/25 06:41:39;;;;;;;10.18;7.78;;;18.60;99.90;;;;;;4866675;29;20061;-85
2022/08/25 06:44:06;;;;;;;12.23;7.63;;;18.70;99.90;;;;;;4876457;29;20053;-85
2022/08/25 06:46:34;;;;;;;11.38;8.20;;;18.80;99.90;;;;;;4878074;29;20044;-86
2022/08/25 06:49:05;;;;;;;13.02;7.88;;;18.90;99.90;;;;;;4873482;29;20517;-85
2022/08/25 06:51:36;;;;;;;9.75;8.65;;;18.80;99.90;;;;;;4863676;29;20589;-85
2022/08/25 06:54:05;;;;;;;7.50;6.78;;;18.90;99.90;;;;;;4838661;29;20415;-86
2022/08/25 06:56:34;;;;;;;12.20;7.63;;;19.10;99.90;;;;;;4870510;29;20056;-84
2022/08/25 06:59:03;;;;;;;9.77;7.38;;;19.10;99.90;;;;;;4873106;29;20061;-86
2022/08/25 07:01:32;;;;;;;14.02;9.05;;;19.20;99.90;;;;;;4869875;29;20049;-86
2022/08/25 07:04:03;;;;;;;10.98;7.70;;;19.10;99.90;;;;;;4876541;29;20072;-86
2022/08/25 07:06:36;;;;;;;6.93;6.30;;;19.20;99.90;;;;;;4876225;29;20041;-85
2022/08/25 07:09:06;;;;;;;21.05;7.70;;;19.40;99.90;;;;;;4875748;29;20064;-86
2022/08/25 07:11:34;;;;;;;8.52;6.70;;;19.40;99.90;;;;;;4860947;29;20064;-85
2022/08/25 07:14:10;;;;;;;8.00;6.07;;;19.50;99.90;;;;;;4877119;29;20049;-86
2022/08/25 07:16:39;;;;;;;12.13;8.68;;;19.60;99.90;;;;;;4876458;29;20057;-87
2022/08/25 07:19:13;;;;;;;9.02;7.10;;;19.90;99.90;;;;;;4874862;29;20049;-85
2022/08/25 07:21:44;;;;;;;6.75;6.05;;;20.00;99.90;;;;;;4859607;29;20060;-86
2022/08/25 07:24:13;;;;;;;14.60;7.20;;;20.10;99.90;;;;;;4875939;29;20061;-86
2022/08/25 07:26:42;;;;;;;9.20;6.97;;;20.10;99.90;;;;;;4877080;29;20049;-86
2022/08/25 07:29:14;;;;;;;7.53;5.82;;;20.30;99.90;;;;;;4874647;29;20059;-86
2022/08/25 07:31:42;;;;;;;7.32;6.72;;;20.20;99.90;;;;;;4870352;29;20049;-86
2022/08/25 07:36:57;;;;;;;8.48;7.03;;;20.00;99.90;;;;;;4860623;29;20053;-86
2022/08/25 07:39:26;;;;;;;9.60;6.25;;;20.10;99.90;;;;;;4845938;29;20057;-85
2022/08/25 07:42:13;;;;;;;6.25;5.65;;;20.30;99.90;;;;;;4850958;29;20065;-86
2022/08/25 07:44:42;;;;;;;5.38;4.88;;;20.50;99.90;;;;;;4849906;29;20053;-88
2022/08/25 07:47:10;;;;;;;6.00;5.40;;;20.70;99.90;;;;;;4859506;29;20045;-86
2022/08/25 07:49:39;;;;;;;7.70;6.63;;;20.70;99.90;;;;;;4865372;29;20417;-80
2022/08/25 07:52:06;;;;;;;7.13;5.65;;;20.70;99.90;;;;;;4865196;29;20057;-80
2022/08/25 07:54:36;;;;;;;21.30;6.82;;;21.30;99.90;;;;;;4867853;29;20537;-86
2022/08/25 07:57:07;;;;;;;6.68;5.13;;;21.70;99.90;;;;;;4886309;29;20057;-86
2022/08/25 07:59:40;;;;;;;7.33;6.63;;;21.50;99.90;;;;;;4871004;29;20089;-86
2022/08/25 08:02:11;;;;;;;6.70;4.75;;;21.30;99.90;;;;;;4889911;29;20485;-87
2022/08/25 08:04:48;;;;;;;4.47;4.03;;;21.10;99.90;;;;;;4875245;29;20483;-86
2022/08/25 08:07:21;;;;;;;;;;;21.10;99.90;;;;;;4859512;29;20056;-87
2022/08/25 08:09:52;;;;;;;7.30;4.53;;;21.10;99.90;;;;;;4867927;29;20290;-87
2022/08/25 08:12:41;;;;;;;6.30;5.70;;;21.10;99.90;;;;;;4841963;29;20060;-87
2022/08/25 08:15:13;;;;;;;5.70;4.20;;;21.10;99.90;;;;;;4871064;29;20703;-86
2022/08/25 08:17:41;;;;;;;4.05;3.50;;;21.20;99.90;;;;;;4847304;29;20053;-87
2022/08/25 08:20:12;;;;;;;5.73;5.13;;;21.20;99.90;;;;;;4855085;29;20052;-87
2022/08/25 08:22:41;;;;;;;5.82;4.55;;;21.20;99.90;;;;;;4869884;29;20053;-85
2022/08/25 08:25:11;;;;;;;5.90;4.03;;;21.20;99.90;;;;;;4893184;29;20076;-86
2022/08/25 08:27:49;;;;;;;5.63;4.00;;;21.30;99.90;;;;;;4859457;29;20502;-86
2022/08/25 08:30:24;;;;;;;2.72;2.53;;;21.30;99.90;;;;;;4882773;29;20506;-86
2022/08/25 08:32:54;;;;;;;3.65;3.20;;;21.40;99.90;;;;;;4877436;29;20056;-86
2022/08/25 08:35:40;;;;;;;4.35;4.03;;;21.40;99.90;;;;;;4861523;29;20052;-85
2022/08/25 08:38:08;;;;;;;4.10;3.65;;;21.60;99.90;;;;;;4846028;29;20049;-85
2022/08/25 08:43:58;;;;;;;6.68;4.72;;;21.70;99.90;;;;;;4873127;29;20052;-85
2022/08/25 08:46:40;;;;;;;4.63;3.58;;;21.70;99.90;;;;;;4859584;29;20044;-86
2022/08/25 08:49:40;;;;;;;4.88;4.00;;;21.60;99.90;;;;;;4869395;29;20057;-90
2022/08/25 08:52:43;;;;;;;5.13;4.63;;;21.70;99.90;;;;;;4828646;29;20056;-86
2022/08/25 08:55:46;;;;;;;4.18;3.75;;;21.70;99.90;;;;;;4851655;29;20060;-87
2022/08/25 08:58:32;;;;;;;3.70;3.10;;;21.90;99.90;;;;;;4835205;29;20064;-87
2022/08/25 09:01:16;;;;;;;4.43;3.70;;;22.00;99.90;;;;;;4834980;29;20053;-87
2022/08/25 09:03:51;;;;;;;6.53;4.50;;;22.10;99.90;;;;;;4844022;29;20064;-86
2022/08/25 09:06:48;;;;;;;7.57;4.30;;;22.20;99.90;;;;;;4874493;29;20060;-87
2022/08/25 09:09:26;;;;;;;8.15;4.13;;;22.10;99.90;;;;;;4861511;29;20052;-83
2022/08/25 09:12:14;;;;;;;5.90;4.45;;;21.80;99.90;;;;;;4870090;29;20041;-85
2022/08/25 09:15:14;;;;;;;7.20;5.30;;;21.80;99.90;;;;;;4883599;29;20063;-85
2022/08/25 09:18:00;;;;;;;5.90;4.88;;;21.90;99.90;;;;;;4852976;29;20044;-83
2022/08/25 09:20:33;;;;;;;6.35;4.05;;;21.80;99.90;;;;;;4851671;29;20439;-83
2022/08/25 09:23:16;;;;;;;6.82;4.90;;;21.70;99.90;;;;;;4894405;29;20044;-80
2022/08/25 09:26:02;;;;;;;9.07;5.43;;;21.60;99.90;;;;;;4875101;29;20041;-83
2022/08/25 09:28:29;;;;;;;7.88;5.00;;;21.60;99.90;;;;;;4887029;29;20056;-83
2022/08/25 09:31:03;;;;;;;6.82;4.90;;;21.60;99.90;;;;;;4876699;29;20414;-81
2022/08/25 09:33:35;;;;;;;5.55;4.45;;;21.60;99.90;;;;;;4890550;29;20541;-83
2022/08/25 09:36:04;;;;;;;7.95;5.35;;;21.70;99.90;;;;;;4869994;29;20422;-85
2022/08/25 09:38:33;;;;;;;6.00;5.30;;;21.80;99.90;;;;;;4874777;29;20052;-81
2022/08/25 09:41:02;;;;;;;5.95;4.70;;;21.90;99.90;;;;;;4851550;29;20052;-83
2022/08/25 09:43:41;;;;;;;5.72;5.13;;;22.00;99.90;;;;;;4870777;29;20060;-81
2022/08/25 09:46:23;;;;;;;5.78;5.18;;;22.00;99.90;;;;;;4857740;29;20063;-83
2022/08/25 09:48:55;;;;;;;8.43;5.18;;;22.20;99.90;;;;;;4879673;29;20684;-82
2022/08/25 09:51:25;;;;;;;5.88;4.95;;;22.30;99.90;;;;;;4895286;29;20057;-84
2022/08/25 09:54:12;;;;;;;8.60;5.03;;;22.40;99.90;;;;;;4869902;29;20052;-82
2022/08/25 09:56:56;;;;;;;11.05;5.38;;;22.30;99.90;;;;;;4882158;29;20056;-83
2022/08/25 09:59:33;;;;;;;5.50;4.32;;;22.30;99.90;;;;;;4875965;29;20063;-82
2022/08/25 10:02:25;;;;;;;7.57;5.22;;;22.40;99.90;;;;;;4880636;29;20048;-83
2022/08/25 10:04:54;;;;;;;6.35;4.80;;;22.60;99.90;;;;;;4881366;29;20057;-84
2022/08/25 10:07:33;;;;;;;5.57;4.03;;;22.90;99.90;;;;;;4880525;29;20048;-83
2022/08/25 10:10:14;;;;;;;5.68;4.57;;;23.00;99.90;;;;;;4889994;29;20052;-83
2022/08/25 10:12:47;;;;;;;6.95;5.40;;;23.00;99.90;;;;;;4862832;29;20056;-86
2022/08/25 10:15:22;;;;;;;6.07;4.20;;;23.00;99.90;;;;;;4863933;29;20723;-84
2022/08/25 10:18:25;;;;;;;8.43;5.38;;;23.10;99.90;;;;;;4879916;29;20051;-84
2022/08/25 10:21:13;;;;;;;11.25;4.90;;;23.20;99.90;;;;;;4870695;29;20403;-83
2022/08/25 10:23:51;;;;;;;7.00;5.38;;;23.20;99.90;;;;;;4892053;29;20063;-83
2022/08/25 10:26:41;;;;;;;5.40;4.90;;;23.30;99.90;;;;;;4877199;29;20063;-81
2022/08/25 10:29:30;;;;;;;9.90;4.73;;;23.50;99.90;;;;;;4858227;29;20406;-79
2022/08/25 10:32:23;;;;;;;6.30;5.80;;;23.50;99.90;;;;;;4894775;29;20486;-84
2022/08/25 10:34:57;;;;;;;6.22;4.63;;;23.60;99.90;;;;;;4893074;29;20060;-81
2022/08/25 10:37:40;;;;;;;7.18;5.00;;;23.60;99.90;;;;;;4892397;29;20553;-81
2022/08/25 10:40:11;;;;;;;10.52;5.85;;;23.60;99.90;;;;;;4891232;29;20041;-80
2022/08/25 10:43:33;;;;;;;10.52;4.50;;;23.70;99.90;;;;;;4889695;29;20056;-86
2022/08/25 10:46:04;;;;;;;9.77;5.28;;;23.90;99.90;;;;;;4780464;29;20462;-78
2022/08/25 10:48:56;;;;;;;8.35;5.70;;;24.10;99.90;;;;;;4873640;29;20123;-78
2022/08/25 10:51:47;;;;;;;12.50;6.22;;;24.10;99.90;;;;;;4860594;29;20076;-80
2022/08/25 10:54:30;;;;;;;6.00;5.20;;;24.10;99.90;;;;;;4883873;29;20053;-81
2022/08/25 10:57:17;;;;;;;11.45;6.38;;;24.00;99.90;;;;;;4894506;29;20059;-79
2022/08/25 11:00:05;;;;;;;11.20;5.97;;;23.90;99.90;;;;;;4866870;29;20485;-78
2022/08/25 11:02:33;;;;;;;9.38;6.18;;;23.70;99.90;;;;;;4882160;29;20068;-76
2022/08/25 11:05:08;;;;;;;7.63;5.80;;;23.60;99.90;;;;;;4867875;29;20406;-83
2022/08/25 11:08:01;;;;;;;12.43;6.40;;;23.60;99.90;;;;;;4876093;29;20039;-85
2022/08/25 11:10:57;;;;;;;5.57;5.03;;;23.70;99.90;;;;;;4859394;29;20557;-83
2022/08/25 11:13:51;;;;;;;14.48;6.50;;;23.80;99.90;;;;;;4839910;29;20052;-82
2022/08/25 11:16:28;;;;;;;12.25;7.90;;;23.90;99.90;;;;;;4884104;29;20394;-81
2022/08/25 11:19:05;;;;;;;10.25;6.78;;;23.70;99.90;;;;;;4888349;29;20055;-83
2022/08/25 11:22:00;;;;;;;11.63;6.10;;;23.90;99.90;;;;;;4861363;29;20045;-82
2022/08/25 11:24:48;;;;;;;10.32;5.78;;;24.00;99.90;;;;;;4885455;29;20052;-82
2022/08/25 11:27:28;;;;;;;6.97;5.00;;;24.10;99.90;;;;;;4890953;29;20138;-85
2022/08/25 11:30:16;;;;;;;;;;;24.30;99.90;;;;;;4871748;29;20518;-82
2022/08/25 11:32:51;;;;;;;11.57;7.28;;;24.30;99.90;;;;;;4876315;29;19928;-85
2022/08/25 11:35:31;;;;;;;11.60;6.15;;;24.30;99.90;;;;;;4885686;29;20458;-87
2022/08/25 11:38:38;;;;;;;8.88;5.38;;;24.20;99.90;;;;;;4872676;29;20067;-84
2022/08/25 11:41:16;;;;;;;8.95;5.72;;;24.30;99.90;;;;;;4878578;29;20051;-83
2022/08/25 11:43:50;;;;;;;8.57;5.60;;;24.30;99.90;;;;;;4865268;29;20053;-85
2022/08/25 11:46:30;;;;;;;6.68;5.72;;;24.30;99.90;;;;;;4871934;29;20045;-84
2022/08/25 11:48:59;;;;;;;10.95;6.65;;;24.30;99.90;;;;;;4871668;29;20045;-83
2022/08/25 11:51:47;;;;;;;8.48;4.80;;;24.30;99.90;;;;;;4893547;29;20049;-82
2022/08/25 11:54:29;;;;;;;11.82;6.55;;;24.30;99.90;;;;;;4892168;29;20649;-82
2022/08/25 11:57:05;;;;;;;8.20;5.78;;;24.60;99.90;;;;;;4891350;29;20045;-83
2022/08/25 11:59:48;;;;;;;13.13;6.07;;;24.90;99.90;;;;;;4885557;29;20056;-83
2022/08/25 12:02:43;;;;;;;12.32;5.53;;;25.00;99.90;;;;;;4886944;29;20403;-81
2022/08/25 12:05:20;;;;;;;11.15;5.38;;;25.00;99.90;;;;;;4887108;29;20049;-83
2022/08/25 12:11:02;;;;;;;11.80;6.65;;;25.10;99.90;;;;;;4888472;29;20056;-82
2022/08/25 12:13:46;;;;;;;13.63;7.70;;;24.90;99.90;;;;;;4889200;29;20505;-81
2022/08/25 12:16:39;;;;;;;10.77;6.80;;;24.90;99.90;;;;;;4893043;29;20471;-82
2022/08/25 12:19:43;;;;;;;10.38;5.82;;;24.90;99.90;;;;;;4887317;29;20033;-81
2022/08/25 12:22:21;;;;;;;6.63;6.13;;;25.00;99.90;;;;;;4870344;29;20053;-81
2022/08/25 12:25:12;;;;;;;11.63;6.18;;;25.00;99.90;;;;;;4865715;29;20057;-82
2022/08/25 12:27:58;;;;;;;24.42;8.70;;;25.00;99.90;;;;;;4887785;29;20564;-82
2022/08/25 12:30:41;;;;;;;11.98;7.60;;;25.00;99.90;;;;;;4883324;29;20434;-81
2022/08/25 12:33:19;;;;;;;12.13;6.55;;;25.10;99.90;;;;;;4871321;29;20044;-82
2022/08/25 12:35:52;;;;;;;12.30;8.57;;;25.20;99.90;;;;;;4858068;29;20052;-85
2022/08/25 12:38:39;;;;;;;10.68;6.13;;;25.00;99.90;;;;;;4873370;29;20056;-84
2022/08/25 12:41:20;;;;;;;8.80;7.97;;;25.00;99.90;;;;;;4870159;29;20057;-84
2022/08/25 12:44:35;;;;;;;7.40;6.57;;;24.90;99.90;;;;;;4875787;29;20438;-86
2022/08/25 12:47:28;;;;;;;12.38;6.15;;;25.00;99.90;;;;;;4875347;29;20854;-83
2022/08/25 12:50:49;;;;;;;15.35;7.45;;;24.70;99.90;;;;;;4844009;29;20503;-83
2022/08/25 12:53:23;;;;;;;9.35;5.38;;;24.70;99.90;;;;;;4845522;29;20499;-83
2022/08/25 12:55:58;;;;;;;7.78;5.60;;;24.90;99.90;;;;;;4844162;29;20060;-84
2022/08/25 12:58:50;;;;;;;10.90;6.25;;;25.00;99.90;;;;;;4859141;29;20056;-79
2022/08/25 13:01:50;;;;;;;15.30;7.60;;;25.10;99.90;;;;;;4881752;29;20052;-80
2022/08/25 13:04:21;;;;;;;16.65;7.05;;;25.20;99.90;;;;;;4857672;29;20052;-84
2022/08/25 13:07:04;;;;;;;13.77;6.95;;;25.30;99.90;;;;;;4850222;29;20490;-84
2022/08/25 13:09:50;;;;;;;12.65;6.65;;;25.40;99.90;;;;;;4870244;29;20044;-85
2022/08/25 13:12:44;;;;;;;16.77;6.63;;;25.40;99.90;;;;;;4864604;29;20052;-85
2022/08/25 13:15:23;;;;;;;15.85;7.55;;;25.40;99.90;;;;;;4867508;29;20080;-85
2022/08/25 13:17:51;;;;;;;11.15;6.72;;;25.50;99.90;;;;;;4869572;29;20049;-85
2022/08/25 13:20:24;;;;;;;11.80;5.78;;;25.50;99.90;;;;;;4866065;29;20053;-85
2022/08/25 13:22:57;;;;;;;15.93;6.68;;;25.50;99.90;;;;;;4842951;29;20799;-86
2022/08/25 13:25:28;;;;;;;12.35;6.50;;;25.50;99.90;;;;;;4834030;29;20055;-85
2022/08/25 13:28:03;;;;;;;14.93;6.72;;;25.50;99.90;;;;;;4859812;29;20053;-84
2022/08/25 13:30:37;;;;;;;12.50;7.30;;;25.30;99.90;;;;;;4861648;29;20057;-86
2022/08/25 13:33:20;;;;;;;10.57;7.28;;;25.10;99.90;;;;;;4837040;29;20064;-85
2022/08/25 13:37:26;;;;;;;11.40;7.30;;;25.00;99.90;;;;;;4859545;29;20407;-81
2022/08/25 13:38:44;;;;;;;33.20;9.27;;;25.10;99.90;;;;;;4881397;29;20056;-80